Time;durP1;ratioP1;P1;durP2;ratioP2;P2;SDS_P1;SDS_P2;PMS_P1;PMS_P2;Temp;Humidity;BMP_temperature;BMP_pressure;BME280_temperature;BME280_humidity;BME280_pressure;Samples;Min_cycle;Max_cycle;Signal;HPM_P1;HPM_P2
2023/07/16 00:02:04;;;;;;;14.27;8.43;;;;;;;;;;5046499;28;20260;-65
2023/07/16 00:04:31;;;;;;;11.40;9.23;;;;;;;;;;5046935;28;20292;-66
2023/07/16 00:06:57;;;;;;;9.88;8.85;;;;;;;;;;5046827;28;20199;-66
2023/07/16 00:09:24;;;;;;;8.80;7.95;;;;;;;;;;5046602;28;20256;-66
2023/07/16 00:11:50;;;;;;;14.25;7.88;;;;;;;;;;5046919;28;20199;-65
2023/07/16 00:14:18;;;;;;;12.48;8.68;;;;;;;;;;5046740;28;20211;-65
2023/07/16 00:16:45;;;;;;;8.88;7.80;;;;;;;;;;5046942;28;20301;-65
2023/07/16 00:19:12;;;;;;;10.27;8.85;;;;;;;;;;5047132;28;20239;-66
2023/07/16 00:21:38;;;;;;;9.35;8.55;;;;;;;;;;5046630;28;20239;-66
2023/07/16 00:24:05;;;;;;;10.32;7.78;;;;;;;;;;5046804;28;20254;-65
2023/07/16 00:26:31;;;;;;;11.30;7.90;;;;;;;;;;5046464;28;20199;-66
2023/07/16 00:28:58;;;;;;;8.60;7.70;;;;;;;;;;5045634;28;20238;-65
2023/07/16 00:31:25;;;;;;;8.18;7.47;;;;;;;;;;5046290;28;20195;-67
2023/07/16 00:33:52;;;;;;;8.02;7.25;;;;;;;;;;5046504;28;20234;-66
2023/07/16 00:36:18;;;;;;;8.68;7.80;;;;;;;;;;5045762;28;20211;-66
2023/07/16 00:38:45;;;;;;;8.43;7.43;;;;;;;;;;5046114;28;20202;-65
2023/07/16 00:41:12;;;;;;;8.52;6.63;;;;;;;;;;5045693;28;20712;-66
2023/07/16 00:43:38;;;;;;;8.02;7.35;;;;;;;;;;5046652;28;20207;-66
2023/07/16 00:46:05;;;;;;;7.70;7.00;;;;;;;;;;5045480;28;20294;-65
2023/07/16 00:48:33;;;;;;;10.98;7.13;;;;;;;;;;5046084;28;20218;-64
2023/07/16 00:51:01;;;;;;;7.82;7.13;;;;;;;;;;5045809;28;20812;-65
2023/07/16 00:53:27;;;;;;;7.18;6.63;;;;;;;;;;5046643;28;20292;-66
2023/07/16 00:55:54;;;;;;;6.57;5.85;;;;;;;;;;5045760;28;20211;-65
2023/07/16 00:58:20;;;;;;;12.55;8.35;;;;;;;;;;5045893;28;20285;-65
2023/07/16 01:00:46;;;;;;;8.18;7.13;;;;;;;;;;5045623;28;20230;-65
2023/07/16 01:03:14;;;;;;;6.75;6.15;;;;;;;;;;5045939;28;20332;-64
2023/07/16 01:05:45;;;;;;;8.93;6.78;;;;;;;;;;5045283;28;20219;-66
2023/07/16 01:08:13;;;;;;;10.52;6.60;;;;;;;;;;5043358;28;20207;-64
2023/07/16 01:10:40;;;;;;;8.05;6.55;;;;;;;;;;5045854;28;20677;-66
2023/07/16 01:13:06;;;;;;;9.60;7.00;;;;;;;;;;5046566;28;20257;-65
2023/07/16 01:15:33;;;;;;;14.02;6.78;;;;;;;;;;5049994;28;20231;-66
2023/07/16 01:18:00;;;;;;;7.45;6.72;;;;;;;;;;5049995;28;20681;-67
2023/07/16 01:20:26;;;;;;;7.68;6.35;;;;;;;;;;5049804;28;20646;-65
2023/07/16 01:23:07;;;;;;;10.15;6.60;;;;;;;;;;5050253;28;20237;-66
2023/07/16 01:25:46;;;;;;;6.35;5.75;;;;;;;;;;5049297;28;20226;-65
2023/07/16 01:28:24;;;;;;;8.38;6.32;;;;;;;;;;5050052;28;20983;-66
2023/07/16 01:30:53;;;;;;;8.48;6.18;;;;;;;;;;5049411;28;20301;-65
2023/07/16 01:33:20;;;;;;;14.40;5.85;;;;;;;;;;5050274;28;20289;-67
2023/07/16 01:35:48;;;;;;;9.20;7.00;;;;;;;;;;5049509;28;20245;-66
2023/07/16 01:38:16;;;;;;;6.55;5.90;;;;;;;;;;5049192;28;20669;-65
2023/07/16 01:40:42;;;;;;;10.75;6.28;;;;;;;;;;5049807;28;20631;-66
2023/07/16 01:43:09;;;;;;;8.00;6.35;;;;;;;;;;5049954;28;20264;-65
2023/07/16 01:45:35;;;;;;;8.88;5.78;;;;;;;;;;5049691;28;20280;-65
2023/07/16 01:48:14;;;;;;;6.05;5.50;;;;;;;;;;5049356;28;20284;-66
2023/07/16 01:50:41;;;;;;;7.20;6.55;;;;;;;;;;5049287;28;20699;-66
2023/07/16 01:53:07;;;;;;;6.82;6.13;;;;;;;;;;5049028;28;20793;-66
2023/07/16 01:55:34;;;;;;;8.73;6.28;;;;;;;;;;5049775;28;20206;-65
2023/07/16 01:58:00;;;;;;;7.50;5.68;;;;;;;;;;5044882;28;20203;-65
2023/07/16 02:00:27;;;;;;;7.47;6.00;;;;;;;;;;5048814;28;20203;-66
2023/07/16 02:02:53;;;;;;;6.07;5.50;;;;;;;;;;5048418;28;20203;-66
2023/07/16 02:05:21;;;;;;;8.35;5.40;;;;;;;;;;5048620;28;20222;-66
2023/07/16 02:07:47;;;;;;;7.03;5.47;;;;;;;;;;5046345;28;20215;-65
2023/07/16 02:10:14;;;;;;;6.60;6.03;;;;;;;;;;5048272;28;20210;-66
2023/07/16 02:12:40;;;;;;;6.63;5.97;;;;;;;;;;5048778;28;20688;-66
2023/07/16 02:15:07;;;;;;;6.93;6.43;;;;;;;;;;5047777;28;20238;-66
2023/07/16 02:17:34;;;;;;;5.88;5.43;;;;;;;;;;5047015;28;20238;-66
2023/07/16 02:20:00;;;;;;;6.68;5.72;;;;;;;;;;5047127;28;20297;-66
2023/07/16 02:22:28;;;;;;;6.82;6.15;;;;;;;;;;5046306;28;20288;-66
2023/07/16 02:24:54;;;;;;;8.38;5.45;;;;;;;;;;5046580;28;20610;-65
2023/07/16 02:27:21;;;;;;;7.03;5.00;;;;;;;;;;5040749;28;20199;-66
2023/07/16 02:29:47;;;;;;;6.15;5.50;;;;;;;;;;5042002;28;20783;-66
2023/07/16 02:32:14;;;;;;;6.10;5.55;;;;;;;;;;5046884;28;20624;-66
2023/07/16 02:34:40;;;;;;;6.40;5.80;;;;;;;;;;5047063;28;20268;-65
2023/07/16 02:37:06;;;;;;;7.75;5.63;;;;;;;;;;5047186;28;20227;-66
2023/07/16 02:39:34;;;;;;;7.05;6.43;;;;;;;;;;5047785;28;20198;-66
2023/07/16 02:42:01;;;;;;;10.02;6.55;;;;;;;;;;5046710;28;20612;-64
2023/07/16 02:44:27;;;;;;;7.15;5.90;;;;;;;;;;5047287;28;20203;-65
2023/07/16 02:46:54;;;;;;;6.18;5.70;;;;;;;;;;5048151;28;20634;-65
2023/07/16 02:49:20;;;;;;;7.65;5.65;;;;;;;;;;5048554;28;20239;-65
2023/07/16 02:51:47;;;;;;;9.90;6.97;;;;;;;;;;5048532;28;20298;-65
2023/07/16 02:54:13;;;;;;;6.80;5.53;;;;;;;;;;5047173;28;20206;-66
2023/07/16 02:56:41;;;;;;;10.57;5.72;;;;;;;;;;5048967;28;20282;-66
2023/07/16 02:59:07;;;;;;;7.13;5.25;;;;;;;;;;5047613;28;20253;-65
2023/07/16 03:01:34;;;;;;;8.13;5.50;;;;;;;;;;5047608;28;20222;-66
2023/07/16 03:04:00;;;;;;;6.55;5.97;;;;;;;;;;5049046;28;20664;-65
2023/07/16 03:06:26;;;;;;;8.45;6.35;;;;;;;;;;5048792;28;20203;-66
2023/07/16 03:08:53;;;;;;;5.95;5.35;;;;;;;;;;5048936;28;20272;-66
2023/07/16 03:11:19;;;;;;;6.50;5.38;;;;;;;;;;5048393;28;20296;-65
2023/07/16 03:13:47;;;;;;;5.97;5.22;;;;;;;;;;5048011;28;20206;-65
2023/07/16 03:16:14;;;;;;;5.18;4.78;;;;;;;;;;5048494;28;20192;-66
2023/07/16 03:18:40;;;;;;;8.45;6.30;;;;;;;;;;5048277;28;20242;-65
2023/07/16 03:21:07;;;;;;;5.53;5.13;;;;;;;;;;5048340;28;20227;-66
2023/07/16 03:23:33;;;;;;;5.53;5.18;;;;;;;;;;5048480;28;20208;-66
2023/07/16 03:25:59;;;;;;;6.65;6.15;;;;;;;;;;5047834;28;20222;-61
2023/07/16 03:28:26;;;;;;;10.75;6.72;;;;;;;;;;5048367;28;20231;-64
2023/07/16 03:30:54;;;;;;;6.10;5.45;;;;;;;;;;5048007;28;20199;-64
2023/07/16 03:33:20;;;;;;;10.75;5.95;;;;;;;;;;5048030;28;20214;-64
2023/07/16 03:35:47;;;;;;;5.85;5.35;;;;;;;;;;5045943;28;20269;-64
2023/07/16 03:38:14;;;;;;;13.88;6.38;;;;;;;;;;5048108;28;20207;-64
2023/07/16 03:40:41;;;;;;;4.78;4.35;;;;;;;;;;5047911;28;20206;-64
2023/07/16 03:43:07;;;;;;;8.68;5.57;;;;;;;;;;5047687;28;20288;-64
2023/07/16 03:45:34;;;;;;;7.03;5.10;;;;;;;;;;5048473;28;20227;-65
2023/07/16 03:48:02;;;;;;;5.10;4.68;;;;;;;;;;5047213;28;20250;-64
2023/07/16 03:50:28;;;;;;;5.22;4.82;;;;;;;;;;5048113;28;20195;-65
2023/07/16 03:52:54;;;;;;;5.55;5.05;;;;;;;;;;5047277;28;20254;-65
2023/07/16 03:55:21;;;;;;;9.27;5.32;;;;;;;;;;5048291;28;20264;-65
2023/07/16 03:57:47;;;;;;;10.95;5.47;;;;;;;;;;5047630;28;20222;-65
2023/07/16 04:00:14;;;;;;;14.63;5.95;;;;;;;;;;5048055;28;20644;-65
2023/07/16 04:02:40;;;;;;;7.25;4.85;;;;;;;;;;5047152;28;20238;-64
2023/07/16 04:05:09;;;;;;;5.18;4.65;;;;;;;;;;5047754;28;20250;-64
2023/07/16 04:07:35;;;;;;;5.18;4.88;;;;;;;;;;5046571;28;20211;-65
2023/07/16 04:10:02;;;;;;;7.53;5.97;;;;;;;;;;5047329;28;20199;-64
2023/07/16 04:12:28;;;;;;;6.55;4.55;;;;;;;;;;5047444;28;20221;-64
2023/07/16 04:14:56;;;;;;;5.82;5.30;;;;;;;;;;5046447;28;20195;-64
2023/07/16 04:17:23;;;;;;;5.45;4.95;;;;;;;;;;5045414;28;20226;-64
2023/07/16 04:19:49;;;;;;;5.10;4.63;;;;;;;;;;5046102;28;21037;-64
2023/07/16 04:22:17;;;;;;;5.85;5.40;;;;;;;;;;5044447;28;20281;-64
2023/07/16 04:24:44;;;;;;;5.25;4.82;;;;;;;;;;5046122;28;20202;-64
2023/07/16 04:27:10;;;;;;;7.55;5.45;;;;;;;;;;5044769;28;20227;-65
2023/07/16 04:29:36;;;;;;;7.32;5.22;;;;;;;;;;5045775;28;20282;-65
2023/07/16 04:32:03;;;;;;;6.50;5.80;;;;;;;;;;5045117;28;20198;-65
2023/07/16 04:34:30;;;;;;;10.90;5.22;;;;;;;;;;5045921;28;20230;-65
2023/07/16 04:36:56;;;;;;;5.97;5.32;;;;;;;;;;5045616;28;20215;-65
2023/07/16 04:39:24;;;;;;;7.30;5.15;;;;;;;;;;5045463;28;20272;-65
2023/07/16 04:41:51;;;;;;;5.60;4.95;;;;;;;;;;5044784;28;20211;-65
2023/07/16 04:44:17;;;;;;;5.20;4.80;;;;;;;;;;5045732;28;20203;-63
2023/07/16 04:46:44;;;;;;;10.88;4.72;;;;;;;;;;5045024;28;20225;-65
2023/07/16 04:49:10;;;;;;;6.15;5.03;;;;;;;;;;5046049;28;20614;-64
2023/07/16 04:51:37;;;;;;;5.22;4.93;;;;;;;;;;5046865;28;20226;-64
2023/07/16 04:54:03;;;;;;;7.88;5.32;;;;;;;;;;5046395;28;20256;-66
2023/07/16 04:56:31;;;;;;;4.75;4.30;;;;;;;;;;5046910;28;20230;-64
2023/07/16 04:58:58;;;;;;;4.88;4.57;;;;;;;;;;5047221;28;20207;-64
2023/07/16 05:01:25;;;;;;;9.00;5.30;;;;;;;;;;5046462;28;20238;-65
2023/07/16 05:03:51;;;;;;;7.93;4.80;;;;;;;;;;5046484;28;20290;-65
2023/07/16 05:06:18;;;;;;;7.50;5.05;;;;;;;;;;5046733;28;20320;-65
2023/07/16 05:08:44;;;;;;;5.72;4.82;;;;;;;;;;5047130;28;20253;-65
2023/07/16 05:11:10;;;;;;;6.50;5.30;;;;;;;;;;5046860;28;20248;-65
2023/07/16 05:13:38;;;;;;;5.15;4.63;;;;;;;;;;5046606;28;20293;-65
2023/07/16 05:16:05;;;;;;;7.53;4.85;;;;;;;;;;5046825;28;20241;-65
2023/07/16 05:18:31;;;;;;;5.57;5.15;;;;;;;;;;5046159;28;20227;-65
2023/07/16 05:20:58;;;;;;;5.10;4.72;;;;;;;;;;5046603;28;20339;-65
2023/07/16 05:23:24;;;;;;;7.00;5.07;;;;;;;;;;5046720;28;20211;-65
2023/07/16 05:25:51;;;;;;;5.95;5.07;;;;;;;;;;5046112;28;20311;-65
2023/07/16 05:28:18;;;;;;;5.15;4.75;;;;;;;;;;5046493;28;20230;-64
2023/07/16 05:30:46;;;;;;;7.82;4.53;;;;;;;;;;5045413;28;20257;-65
2023/07/16 05:33:13;;;;;;;5.10;4.68;;;;;;;;;;5046833;28;20203;-64
2023/07/16 05:35:40;;;;;;;7.50;4.80;;;;;;;;;;5046389;28;20199;-65
2023/07/16 05:38:07;;;;;;;6.20;5.03;;;;;;;;;;5046253;28;20306;-64
2023/07/16 05:40:33;;;;;;;6.30;5.15;;;;;;;;;;5046533;28;20199;-65
2023/07/16 05:43:00;;;;;;;6.65;4.95;;;;;;;;;;5045933;28;20234;-65
2023/07/16 05:45:26;;;;;;;6.15;4.80;;;;;;;;;;5046309;28;20574;-64
2023/07/16 05:47:54;;;;;;;11.63;5.15;;;;;;;;;;5045953;28;20265;-64
2023/07/16 05:50:20;;;;;;;5.05;4.57;;;;;;;;;;5046530;28;20264;-65
2023/07/16 05:52:48;;;;;;;4.78;4.45;;;;;;;;;;5045709;28;20272;-64
2023/07/16 05:55:15;;;;;;;7.32;4.68;;;;;;;;;;5046310;28;20681;-65
2023/07/16 05:57:41;;;;;;;5.43;4.90;;;;;;;;;;5047010;28;20242;-64
2023/07/16 06:00:08;;;;;;;8.55;4.97;;;;;;;;;;5050139;28;20690;-65
2023/07/16 06:02:35;;;;;;;9.25;4.57;;;;;;;;;;5049397;28;20252;-64
2023/07/16 06:05:03;;;;;;;7.50;4.05;;;;;;;;;;5050476;28;20252;-64
2023/07/16 06:07:30;;;;;;;7.57;4.30;;;;;;;;;;5049291;28;20231;-64
2023/07/16 06:09:57;;;;;;;7.28;4.45;;;;;;;;;;5050049;28;20211;-65
2023/07/16 06:12:23;;;;;;;7.95;5.05;;;;;;;;;;5049647;28;20264;-65
2023/07/16 06:14:50;;;;;;;5.28;4.90;;;;;;;;;;5047393;28;20280;-65
2023/07/16 06:17:16;;;;;;;5.07;4.70;;;;;;;;;;5048261;28;20645;-65
2023/07/16 06:19:43;;;;;;;6.28;4.85;;;;;;;;;;5048075;28;20299;-65
2023/07/16 06:22:11;;;;;;;6.07;5.18;;;;;;;;;;5047416;28;20365;-65
2023/07/16 06:24:37;;;;;;;4.93;4.35;;;;;;;;;;5048242;28;20199;-65
2023/07/16 06:27:04;;;;;;;5.32;4.40;;;;;;;;;;5046658;28;20215;-65
2023/07/16 06:29:30;;;;;;;8.75;4.28;;;;;;;;;;5047424;28;20272;-65
2023/07/16 06:31:57;;;;;;;5.68;4.57;;;;;;;;;;5047425;28;20211;-65
2023/07/16 06:34:24;;;;;;;4.78;4.45;;;;;;;;;;5047683;28;20306;-66
2023/07/16 06:36:50;;;;;;;4.13;3.88;;;;;;;;;;5047802;28;20522;-65
2023/07/16 06:39:18;;;;;;;4.32;4.03;;;;;;;;;;5047916;28;20203;-65
2023/07/16 06:41:44;;;;;;;5.57;4.72;;;;;;;;;;5046299;28;20708;-67
2023/07/16 06:44:11;;;;;;;10.93;4.38;;;;;;;;;;5048060;28;20238;-65
2023/07/16 06:46:37;;;;;;;5.38;4.25;;;;;;;;;;5047116;28;20740;-64
2023/07/16 06:49:06;;;;;;;8.45;4.13;;;;;;;;;;5048469;28;20230;-66
2023/07/16 06:51:32;;;;;;;6.05;4.13;;;;;;;;;;5049187;28;20319;-66
2023/07/16 06:53:59;;;;;;;5.18;4.38;;;;;;;;;;5049410;28;20640;-65
2023/07/16 06:56:26;;;;;;;4.85;4.40;;;;;;;;;;5048940;28;20360;-66
2023/07/16 06:58:53;;;;;;;6.13;4.43;;;;;;;;;;5049228;28;20230;-65
2023/07/16 07:01:19;;;;;;;6.95;4.30;;;;;;;;;;5048225;28;20238;-66
2023/07/16 07:03:46;;;;;;;5.30;4.90;;;;;;;;;;5048794;28;20195;-65
2023/07/16 07:06:12;;;;;;;5.63;4.70;;;;;;;;;;5048511;28;20258;-67
2023/07/16 07:08:39;;;;;;;5.35;4.30;;;;;;;;;;5048236;28;20207;-65
2023/07/16 07:11:05;;;;;;;4.82;4.35;;;;;;;;;;5048306;28;20203;-65
2023/07/16 07:13:33;;;;;;;5.30;4.80;;;;;;;;;;5048584;28;20677;-66
2023/07/16 07:15:59;;;;;;;5.93;4.43;;;;;;;;;;5048436;28;20195;-67
2023/07/16 07:18:26;;;;;;;4.72;4.30;;;;;;;;;;5048302;28;20230;-65
2023/07/16 07:20:52;;;;;;;9.10;4.80;;;;;;;;;;5048273;28;20658;-65
2023/07/16 07:23:19;;;;;;;5.22;4.90;;;;;;;;;;5048927;28;20280;-65
2023/07/16 07:25:49;;;;;;;5.93;5.10;;;;;;;;;;5047658;28;20230;-65
2023/07/16 07:28:15;;;;;;;5.53;4.43;;;;;;;;;;5048206;28;20199;-65
2023/07/16 07:30:43;;;;;;;5.25;4.75;;;;;;;;;;5048592;28;20211;-65
2023/07/16 07:33:11;;;;;;;5.32;4.82;;;;;;;;;;5047634;28;20203;-65
2023/07/16 07:35:37;;;;;;;4.68;4.38;;;;;;;48.88;nan;95372.19;5048135;28;20198;-66
2023/07/16 07:38:04;;;;;;;10.38;4.28;;;;;;;;;;5048142;28;20202;-66
2023/07/16 07:40:30;;;;;;;4.97;4.63;;;;;;;50.84;nan;95382.56;5048079;28;20707;-66
2023/07/16 07:42:57;;;;;;;5.28;4.50;;;;;;;;;;5047316;28;20282;-66
2023/07/16 07:45:24;;;;;;;6.47;4.07;;;;;;;;;;5047489;28;20680;-66
2023/07/16 07:47:52;;;;;;;4.43;4.13;;;;;;;;;;5047330;28;20725;-65
2023/07/16 07:50:18;;;;;;;5.40;4.10;;;;;;;;;;5047709;28;20203;-66
2023/07/16 07:52:45;;;;;;;4.72;4.25;;;;;;;;;;5047761;28;20253;-65
2023/07/16 07:55:11;;;;;;;4.43;4.03;;;;;;;49.72;nan;95368.03;5047981;28;20672;-66
2023/07/16 07:57:38;;;;;;;4.75;4.38;;;;;;;50.94;nan;95366.19;5047721;28;20222;-67
2023/07/16 08:00:11;;;;;;;4.47;4.18;;;;;;;48.25;nan;95365.97;5048052;28;20308;-66
2023/07/16 08:02:38;;;;;;;4.68;4.38;;;;;;;46.86;nan;95369.44;5047209;28;20327;-65
2023/07/16 08:05:07;;;;;;;8.57;4.22;;;;;;;47.92;nan;95367.50;5047911;28;20672;-65
2023/07/16 08:07:33;;;;;;;5.18;4.93;;;;;;;49.28;nan;95367.47;5047558;28;20315;-65
2023/07/16 08:10:00;;;;;;;4.85;4.45;;;;;;;;;;5047508;28;20264;-65
2023/07/16 08:12:27;;;;;;;5.70;5.15;;;;;;;50.22;nan;95376.53;5047673;28;20252;-64
2023/07/16 08:14:53;;;;;;;5.93;4.80;;;;;;;50.32;nan;95365.56;5045515;28;20230;-66
2023/07/16 08:17:20;;;;;;;8.80;5.30;;;;;;;;;;5045890;28;20241;-66
2023/07/16 08:19:46;;;;;;;5.15;4.75;;;;;;;;;;5045280;28;20237;-65
2023/07/16 08:22:14;;;;;;;5.50;5.05;;;;;;;48.33;nan;95376.94;5045318;28;20266;-66
2023/07/16 08:24:41;;;;;;;5.45;4.90;;;;;;;49.81;nan;95370.06;5045834;28;20684;-66
2023/07/16 08:27:07;;;;;;;5.82;5.30;;;;;;;;;;5045370;28;20260;-66
2023/07/16 08:29:36;;;;;;;6.13;5.60;;;;;;;49.00;nan;95366.41;5044986;28;20672;-65
2023/07/16 08:32:04;;;;;;;5.88;5.28;;;;;;;48.89;nan;95373.00;5045058;28;20599;-65
2023/07/16 08:34:30;;;;;;;5.47;5.18;;;;;;;49.09;nan;95369.28;5046899;28;20286;-65
2023/07/16 08:36:57;;;;;;;6.18;5.57;;;;;;;49.73;nan;95371.53;5046789;28;20191;-66
2023/07/16 08:39:25;;;;;;;6.32;5.72;;;;;;;49.01;nan;95379.59;5047280;28;20203;-65
2023/07/16 08:41:51;;;;;;;7.22;6.15;;;;;;;;;;5046313;28;20199;-65
2023/07/16 08:44:18;;;;;;;6.03;5.43;;;;;;;49.14;nan;95355.72;5044850;28;20198;-65
2023/07/16 08:46:46;;;;;;;6.30;5.70;;;;;;;50.13;nan;95372.88;5046350;28;20707;-66
2023/07/16 08:49:13;;;;;;;6.53;6.00;;;;;;;50.04;nan;95366.50;5047271;28;20664;-65
2023/07/16 08:51:41;;;;;;;6.35;5.70;;;;;;;48.72;nan;95360.72;5047247;28;20222;-64
2023/07/16 08:54:08;;;;;;;6.32;5.57;;;;;;;48.03;nan;95379.81;5047070;28;20912;-64
2023/07/16 08:56:36;;;;;;;9.70;6.32;;;;;;;47.52;nan;95363.88;5047206;28;20199;-65
2023/07/16 08:59:03;;;;;;;7.25;5.90;;;;;;;47.08;nan;95361.88;5045883;28;20225;-65
2023/07/16 09:01:30;;;;;;;6.35;5.93;;;;;;;47.41;nan;95362.34;5046603;28;20234;-65
2023/07/16 09:03:57;;;;;;;7.25;6.53;;;;;;;48.84;nan;95352.22;5046641;28;20260;-65
2023/07/16 09:06:24;;;;;;;11.45;7.13;;;;;;;49.25;nan;95349.16;5046538;28;20202;-65
2023/07/16 09:08:51;;;;;;;6.57;5.97;;;;;;;48.45;nan;95362.28;5046586;28;20672;-65
2023/07/16 09:11:21;;;;;;;6.90;6.22;;;;;;;;;;5046782;28;21377;-64
2023/07/16 09:13:49;;;;;;;8.82;6.68;;;;;;;48.03;nan;95348.28;5046537;28;20739;-65
2023/07/16 09:16:20;;;;;;;12.15;6.88;;;;;;;48.17;nan;95345.78;5046794;28;20214;-64
2023/07/16 09:18:47;;;;;;;10.60;6.57;;;;;;;48.50;nan;95352.31;5046244;28;20599;-64
2023/07/16 09:21:14;;;;;;;7.22;6.63;;;;;;;;;;5046039;28;20235;-65
2023/07/16 09:23:43;;;;;;;9.75;6.90;;;;;;;46.50;nan;95351.72;5046489;28;20202;-64
2023/07/16 09:26:09;;;;;;;10.18;7.05;;;;;;;;;;5046795;28;20202;-63
2023/07/16 09:28:36;;;;;;;8.10;7.30;;;;;;;;;;5046619;28;20254;-64
2023/07/16 09:31:07;;;;;;;9.38;7.57;;;;;;;;;;5046642;28;20229;-65
2023/07/16 09:33:34;;;;;;;7.90;7.35;;;;;;;;;;5049022;28;20206;-65
2023/07/16 09:36:02;;;;;;;8.85;6.47;;;;;;;;;;5050628;28;20207;-65
2023/07/16 09:38:29;;;;;;;7.35;6.75;;;;;;;;;;5050485;28;20250;-66
2023/07/16 09:40:57;;;;;;;9.55;8.00;;;;;;;;;;5050151;28;20251;-65
2023/07/16 09:43:23;;;;;;;7.60;6.93;;;;;;;;;;5050263;28;20211;-65
2023/07/16 09:45:50;;;;;;;8.13;7.28;;;;;;;;;;5050147;28;20207;-64
2023/07/16 09:48:17;;;;;;;13.20;8.23;;;;;;;;;;5044960;28;20304;-66
2023/07/16 09:50:47;;;;;;;10.18;7.25;;;;;;;;;;5023574;28;20202;-67
2023/07/16 09:53:13;;;;;;;8.13;7.53;;;;;;;;;;5048396;28;20223;-66
2023/07/16 09:55:40;;;;;;;8.10;7.43;;;;;;;;;;5050016;28;20199;-67
2023/07/16 09:58:07;;;;;;;8.82;8.00;;;;;;;;;;5050265;28;20227;-66
2023/07/16 10:00:35;;;;;;;15.98;8.70;;;;;;;;;;5050265;28;20257;-67
2023/07/16 10:03:01;;;;;;;11.60;8.30;;;;;;;;;;5048866;28;20238;-66
2023/07/16 10:05:29;;;;;;;9.55;8.18;;;;;;;;;;5046363;28;20238;-65
2023/07/16 10:07:58;;;;;;;9.98;8.98;;;;;;;;;;5049771;28;20218;-66
2023/07/16 10:10:27;;;;;;;12.00;8.93;;;;;;;;;;5049395;28;20203;-65
2023/07/16 10:12:57;;;;;;;25.30;21.42;;;;;;;;;;5046976;28;20673;-66
2023/07/16 10:15:26;;;;;;;13.82;10.15;;;;;;;;;;5047086;28;20962;-66
2023/07/16 10:17:52;;;;;;;8.80;8.07;;;;;;;;;;5048481;28;20283;-65
2023/07/16 10:20:28;;;;;;;16.58;12.23;;;;;;;;;;5047445;28;20734;-66
2023/07/16 10:22:56;;;;;;;16.50;8.70;;;;;;;;;;5047563;28;20210;-64
2023/07/16 10:25:23;;;;;;;14.00;11.88;;;;;;;;;;5047232;28;20195;-66
2023/07/16 10:27:51;;;;;;;13.23;9.85;;;;;;;;;;5047086;28;20708;-67
2023/07/16 10:30:17;;;;;;;11.25;8.20;;;;;;;;;;5046909;28;20264;-65
2023/07/16 10:32:44;;;;;;;9.52;8.45;;;;;;;;;;5047666;28;20676;-66
2023/07/16 10:35:11;;;;;;;9.30;8.52;;;;;;;;;;5049036;28;20199;-65
2023/07/16 10:37:38;;;;;;;8.70;7.90;;;;;;;;;;5049360;28;20256;-65
2023/07/16 10:40:10;;;;;;;9.88;8.98;;;;;;;;;;5047024;28;20237;-65
2023/07/16 10:42:36;;;;;;;11.43;9.13;;;;;;;;;;5046680;28;20308;-66
2023/07/16 10:45:04;;;;;;;9.73;8.82;;;;;;;;;;5047636;28;20691;-67
2023/07/16 10:47:31;;;;;;;11.20;10.18;;;;;;;;;;5048396;28;20254;-65
2023/07/16 10:49:58;;;;;;;10.48;9.27;;;;;;;;;;5048033;28;20260;-67
2023/07/16 10:52:25;;;;;;;9.93;8.90;;;;;;;;;;5046735;28;20226;-66
2023/07/16 10:54:54;;;;;;;13.02;11.88;;;;;;;;;;5048291;28;20296;-65
2023/07/16 10:57:22;;;;;;;10.65;9.30;;;;;;;;;;5048019;28;20657;-66
2023/07/16 10:59:49;;;;;;;9.27;8.57;;;;;;;;;;5048353;28;20207;-66
2023/07/16 11:02:16;;;;;;;9.60;8.80;;;;;;;;;;5048017;28;20203;-65
2023/07/16 11:04:43;;;;;;;11.65;8.73;;;;;;;;;;5049285;28;20191;-65
2023/07/16 11:07:11;;;;;;;13.10;9.48;;;;;;;;;;5048364;28;20284;-64
2023/07/16 11:09:42;;;;;;;11.93;9.68;;;;;;;;;;5048252;28;20219;-64
2023/07/16 11:12:09;;;;;;;11.13;10.18;;;;;;;;;;5047907;28;20211;-63
2023/07/16 11:14:37;;;;;;;10.82;9.73;;;;;;;;;;5048730;28;20235;-64
2023/07/16 11:17:07;;;;;;;10.73;9.70;;;;;;;;;;5047212;28;20711;-64
2023/07/16 11:19:34;;;;;;;9.25;8.55;;;;;;;;;;5048205;28;20200;-65
2023/07/16 11:22:01;;;;;;;10.77;9.68;;;;;;;;;;5047427;28;20668;-64
2023/07/16 11:24:27;;;;;;;10.07;9.27;;;;;;;;;;5048445;28;20230;-64
2023/07/16 11:26:56;;;;;;;10.15;9.07;;;;;;;;;;5047179;28;20206;-65
2023/07/16 11:29:23;;;;;;;11.98;10.45;;;;;;;;;;5047364;28;20724;-64
2023/07/16 11:31:51;;;;;;;10.30;9.27;;;;;;;;;;5047069;28;20764;-64
2023/07/16 11:34:20;;;;;;;9.98;8.93;;;;;;;;;;5048089;28;20227;-64
2023/07/16 11:36:46;;;;;;;11.00;9.68;;;;;;;;;;5047781;28;20199;-64
2023/07/16 11:39:13;;;;;;;9.75;8.95;;;;;;;;;;5048122;28;20711;-64
2023/07/16 11:41:39;;;;;;;11.38;9.57;;;;;;;;;;5047597;28;20969;-64
2023/07/16 11:44:09;;;;;;;14.45;9.25;;;;;;;;;;5047888;28;20272;-65
2023/07/16 11:46:35;;;;;;;11.07;8.55;;;;;;;;;;5047159;28;20688;-66
2023/07/16 11:49:03;;;;;;;9.73;8.55;;;;;;;;;;5047745;28;20226;-65
2023/07/16 11:51:30;;;;;;;9.85;8.90;;;;;;;;;;5046387;28;20243;-66
2023/07/16 11:53:57;;;;;;;15.38;9.60;;;;;;;;;;5047552;28;20265;-66
2023/07/16 11:56:24;;;;;;;10.45;9.30;;;;;;;;;;5046673;28;20754;-65
2023/07/16 11:58:50;;;;;;;9.57;8.77;;;;;;;;;;5048294;28;20195;-66
2023/07/16 12:01:17;;;;;;;12.88;9.50;;;;;;;;;;5046961;28;20207;-67
2023/07/16 12:03:43;;;;;;;11.05;9.95;;;;;;;;;;5047589;28;20260;-65
2023/07/16 12:06:11;;;;;;;11.93;9.57;;;;;;;;;;5046863;28;20257;-66
2023/07/16 12:08:37;;;;;;;9.55;8.70;;;;;;;;;;5047434;28;20296;-66
2023/07/16 12:11:04;;;;;;;11.35;9.32;;;;;;;;;;5043171;28;20203;-66
2023/07/16 12:13:30;;;;;;;19.15;16.52;;;;;;;;;;5042700;28;20196;-67
2023/07/16 12:15:57;;;;;;;14.90;12.88;;;;;;;;;;5041733;28;20286;-66
2023/07/16 12:18:23;;;;;;;9.98;9.05;;;;;;;;;;5045375;28;20230;-68
2023/07/16 12:20:50;;;;;;;12.60;9.13;;;;;;;;;;5044803;28;20746;-67
2023/07/16 12:23:17;;;;;;;9.35;8.57;;;;;;;;;;5045109;28;20242;-67
2023/07/16 12:25:44;;;;;;;27.88;22.15;;;;;;;;;;5045742;28;20269;-67
2023/07/16 12:28:11;;;;;;;15.13;13.40;;;;;;;;;;5044873;28;20674;-66
2023/07/16 12:30:38;;;;;;;37.92;28.58;;;;;;;;;;5045381;28;20273;-67
2023/07/16 12:33:04;;;;;;;16.48;11.52;;;;;;;;;;5044689;28;20195;-66
2023/07/16 12:35:31;;;;;;;9.25;8.32;;;;;;;;;;5046833;28;20195;-67
2023/07/16 12:37:58;;;;;;;9.32;8.02;;;;;;;;;;5045036;28;20223;-67
2023/07/16 12:40:26;;;;;;;9.68;8.75;;;;;;;;;;5040312;28;20584;-66
2023/07/16 12:42:52;;;;;;;9.65;7.85;;;;;;;;;;5044647;28;20199;-67
2023/07/16 12:45:19;;;;;;;10.57;8.65;;;;;;;;;;5042963;28;20207;-66
2023/07/16 12:47:45;;;;;;;11.48;8.75;;;;;;;;;;5045652;28;20227;-64
2023/07/16 12:50:12;;;;;;;14.45;12.38;;;;;;;;;;5043745;28;20321;-65
2023/07/16 12:52:38;;;;;;;12.68;8.18;;;;;;;;;;5045517;28;20239;-66
2023/07/16 12:55:05;;;;;;;14.15;10.02;;;;;;;;;;5046683;28;20199;-66
2023/07/16 12:57:33;;;;;;;18.42;14.00;;;;;;;;;;5045827;28;20241;-67
2023/07/16 12:59:59;;;;;;;8.52;7.70;;;;;;;;;;5046690;28;20199;-66
2023/07/16 13:02:26;;;;;;;25.42;22.73;;;;;;;;;;5046138;28;20355;-65
2023/07/16 13:04:52;;;;;;;18.80;14.82;;;;;;;;;;5046513;28;20238;-65
2023/07/16 13:07:18;;;;;;;10.18;8.45;;;;;;;;;;5045505;28;20618;-65
2023/07/16 13:09:45;;;;;;;11.57;9.55;;;;;;;;;;5046685;28;20923;-66
2023/07/16 13:12:11;;;;;;;9.85;8.10;;;;;;;;;;5045834;28;20207;-66
2023/07/16 13:14:39;;;;;;;16.80;14.90;;;;;;;;;;5046018;28;20750;-67
2023/07/16 13:17:06;;;;;;;37.80;33.40;;;;;;;;;;5045196;28;20702;-66
2023/07/16 13:19:32;;;;;;;32.95;28.38;;;;;;;;;;5046345;28;20203;-66
2023/07/16 13:21:59;;;;;;;12.15;10.35;;;;;;;;;;5046120;28;20230;-64
2023/07/16 13:24:26;;;;;;;9.38;8.50;;;;;;;;;;5046013;28;20230;-65
2023/07/16 13:26:52;;;;;;;8.25;7.55;;;;;;;;;;5045584;28;20203;-66
2023/07/16 13:29:19;;;;;;;8.90;8.02;;;;;;;;;;5046179;28;20270;-66
2023/07/16 13:31:47;;;;;;;8.38;7.63;;;;;;;;;;5045816;28;20819;-66
2023/07/16 13:34:13;;;;;;;8.20;7.50;;;;;;;;;;5046351;28;20261;-65
2023/07/16 13:36:40;;;;;;;7.72;7.05;;;;;;;;;;5046374;28;20306;-66
2023/07/16 13:39:06;;;;;;;7.28;6.65;;;;;;;;;;5046511;28;20257;-66
2023/07/16 13:41:33;;;;;;;7.80;7.10;;;;;;;;;;5046258;28;20214;-66
2023/07/16 13:43:59;;;;;;;39.00;32.55;;;;;;;;;;5046045;28;20249;-65
2023/07/16 13:46:26;;;;;;;29.65;26.50;;;;;;;;;;5045994;28;20234;-66
2023/07/16 13:48:54;;;;;;;10.85;9.80;;;;;;;;;;5046151;28;20230;-65
2023/07/16 13:51:20;;;;;;;11.15;10.15;;;;;;;;;;5045396;28;20215;-64
2023/07/16 13:53:46;;;;;;;13.32;11.98;;;;;;;;;;5046526;28;20191;-65
2023/07/16 13:56:13;;;;;;;8.10;7.40;;;;;;;;;;5045385;28;20199;-66
2023/07/16 13:58:39;;;;;;;10.70;8.35;;;;;;;;;;5046000;28;20238;-67
2023/07/16 14:01:06;;;;;;;9.45;8.02;;;;;;;;;;5045368;28;20633;-65
2023/07/16 14:03:32;;;;;;;9.65;8.73;;;;;;;;;;5045295;28;20207;-65
2023/07/16 14:06:00;;;;;;;10.38;8.60;;;;;;;;;;5043686;28;20290;-65
2023/07/16 14:08:27;;;;;;;8.40;7.53;;;;;;;;;;5044269;28;21816;-67
2023/07/16 14:10:54;;;;;;;9.23;7.72;;;;;;;;;;5044441;28;20210;-66
2023/07/16 14:13:21;;;;;;;9.93;8.63;;;;;;;;;;5044222;28;20276;-65
2023/07/16 14:15:47;;;;;;;8.63;7.82;;;;;;;;;;5044730;28;20210;-67
2023/07/16 14:18:14;;;;;;;10.18;7.95;;;;;;;;;;5044307;28;20249;-67